createdAt,value
2023-01-17T00:00:36.433Z,0.75
2023-01-17T00:05:58.451Z,0.72
2023-01-17T00:10:59.436Z,0.64
2023-01-17T00:16:00.236Z,0.66
2023-01-17T00:21:19.670Z,0.59
2023-01-17T00:26:20.531Z,0.50
2023-01-17T00:31:21.702Z,0.41
2023-01-17T00:36:22.491Z,0.36
2023-01-17T00:41:23.352Z,0.36
2023-01-17T00:46:42.966Z,0.28
2023-01-17T00:52:02.563Z,0.21
2023-01-17T00:57:22.897Z,0.21
2023-01-17T01:02:43.685Z,0.18
2023-01-17T01:08:03.573Z,0.21
2023-01-17T01:13:22.913Z,0.31
2023-01-17T01:18:42.122Z,0.33
2023-01-17T01:24:01.395Z,0.35
2023-01-17T01:29:21.500Z,0.33
2023-01-17T01:34:22.372Z,0.33
2023-01-17T01:39:23.121Z,0.31
2023-01-17T01:48:03.214Z,0.32
2023-01-17T01:53:06.152Z,0.38
2023-01-17T01:58:21.632Z,0.41
2023-01-17T02:03:28.513Z,0.40
2023-01-17T02:08:30.525Z,0.45
2023-01-17T02:13:31.473Z,0.38
2023-01-17T02:19:24.999Z,0.39
2023-01-17T02:24:54.035Z,0.50
2023-01-17T02:30:27.038Z,0.51
2023-01-17T02:37:28.228Z,0.45
2023-01-17T02:42:35.291Z,0.56
2023-01-17T02:47:36.161Z,0.61
2023-01-17T02:54:29.435Z,0.58
2023-01-17T02:59:43.651Z,0.41
2023-01-17T03:04:58.086Z,0.50
2023-01-17T03:10:03.956Z,0.40
2023-01-17T03:15:11.208Z,0.33
2023-01-17T03:20:12.174Z,0.45
2023-01-17T03:25:13.063Z,0.44
2023-01-17T03:30:15.247Z,0.38
2023-01-17T03:35:16.139Z,0.31
2023-01-17T03:40:16.944Z,0.34
2023-01-17T03:45:18.263Z,0.33
2023-01-17T03:50:19.091Z,0.33
2023-01-17T03:55:19.946Z,0.23
2023-01-17T04:00:20.879Z,0.27
2023-01-17T04:05:21.589Z,0.23
2023-01-17T04:10:22.356Z,0.10
2023-01-17T04:15:23.085Z,0.10
2023-01-17T04:20:36.529Z,0.08
2023-01-17T04:25:37.787Z,-0.08
2023-01-17T04:30:38.859Z,0.07
2023-01-17T04:35:39.600Z,0.07
2023-01-17T04:40:40.369Z,0.19
2023-01-17T04:45:41.115Z,0.25
2023-01-17T04:50:42.072Z,0.14
2023-01-17T04:55:46.194Z,0.10
2023-01-17T05:00:50.066Z,0.24
2023-01-17T05:05:50.882Z,0.09
2023-01-17T05:10:52.109Z,0.23
2023-01-17T05:15:53.105Z,0.21
2023-01-17T05:20:53.899Z,0.26
2023-01-17T05:25:55.272Z,0.18
2023-01-17T05:30:56.122Z,0.21
2023-01-17T05:35:57.559Z,0.27
2023-01-17T05:41:00.159Z,0.33
2023-01-17T05:46:01.224Z,0.33
2023-01-17T05:51:02.074Z,0.27
2023-01-17T05:56:03.005Z,0.39
2023-01-17T06:01:03.933Z,0.25
2023-01-17T06:06:04.917Z,0.19
2023-01-17T06:11:05.760Z,0.10
2023-01-17T06:16:07.477Z,0.06
2023-01-17T06:21:08.297Z,-0.03
2023-01-17T06:26:09.699Z,-0.08
2023-01-17T06:31:10.503Z,0.01
2023-01-17T06:36:11.275Z,0.09
2023-01-17T06:41:12.025Z,0.09
2023-01-17T06:46:12.812Z,0.11
2023-01-17T06:51:14.261Z,0.13
2023-01-17T06:56:15.468Z,0.15
2023-01-17T07:01:17.583Z,0.10
2023-01-17T07:06:18.872Z,0.15
2023-01-17T07:11:19.604Z,0.26
2023-01-17T07:16:20.463Z,0.24
2023-01-17T07:21:21.842Z,0.35
2023-01-17T07:26:22.781Z,0.41
2023-01-17T07:31:23.769Z,0.28
2023-01-17T07:36:24.547Z,0.37
2023-01-17T07:41:25.376Z,0.29
2023-01-17T07:46:26.888Z,0.25
2023-01-17T07:51:27.963Z,0.21
2023-01-17T07:56:28.783Z,0.27
2023-01-17T08:01:29.751Z,0.28
2023-01-17T08:06:30.731Z,0.41
2023-01-17T08:11:31.468Z,0.53
2023-01-17T08:16:32.297Z,0.87
2023-01-17T08:21:33.136Z,1.62
2023-01-17T08:26:33.963Z,1.45
2023-01-17T08:31:35.242Z,1.31
2023-01-17T08:36:36.140Z,1.02
2023-01-17T08:41:36.936Z,1.21
2023-01-17T08:46:39.002Z,1.49
2023-01-17T08:51:39.901Z,1.59
2023-01-17T08:56:46.091Z,1.47
2023-01-17T09:01:47.050Z,1.59
2023-01-17T09:06:48.049Z,1.80
2023-01-17T09:11:48.794Z,1.98
2023-01-17T09:16:50.187Z,2.14
2023-01-17T09:21:51.043Z,2.19
2023-01-17T09:26:52.096Z,2.15
2023-01-17T09:31:53.162Z,2.15
2023-01-17T09:36:56.577Z,1.87
2023-01-17T09:42:29.246Z,2.11
2023-01-17T09:47:52.344Z,2.79
2023-01-17T09:53:05.075Z,2.68
2023-01-17T09:58:14.172Z,3.09
2023-01-17T10:03:39.502Z,2.90
2023-01-17T10:09:07.290Z,3.46
2023-01-17T10:18:30.765Z,3.85
2023-01-17T10:25:15.520Z,3.99
2023-01-17T10:30:23.182Z,3.27
2023-01-17T10:35:32.564Z,2.86
2023-01-17T10:40:43.953Z,2.55
2023-01-17T10:45:52.372Z,2.64
2023-01-17T10:51:10.881Z,2.64
2023-01-17T10:56:16.491Z,2.66
2023-01-17T11:01:20.088Z,2.90
2023-01-17T11:06:25.481Z,2.86
2023-01-17T11:11:32.177Z,3.36
2023-01-17T11:16:33.068Z,3.31
2023-01-17T11:21:38.647Z,2.69
2023-01-17T11:26:46.735Z,3.17
2023-01-17T11:31:47.678Z,3.53
2023-01-17T11:36:49.378Z,3.06
2023-01-17T11:41:51.428Z,3.20
2023-01-17T11:50:25.063Z,3.21
2023-01-17T11:55:25.877Z,3.70
2023-01-17T12:00:39.410Z,3.09
2023-01-17T12:06:10.983Z,2.50
2023-01-17T12:13:06.435Z,2.46
2023-01-17T12:19:48.120Z,2.33
2023-01-17T12:38:33.380Z,2.11
2023-01-17T12:43:39.417Z,1.39
2023-01-17T12:48:41.296Z,1.31
2023-01-17T12:54:06.291Z,1.51
2023-01-17T13:01:02.123Z,1.50
2023-01-17T13:06:06.406Z,1.63
2023-01-17T13:11:45.210Z,1.49
2023-01-17T13:16:57.968Z,1.81
2023-01-17T13:22:00.181Z,2.13
2023-01-17T13:27:18.032Z,2.25
2023-01-17T13:33:14.523Z,2.65
2023-01-17T13:39:29.224Z,2.99
2023-01-17T13:44:31.155Z,2.61
2023-01-17T13:49:48.007Z,2.07
2023-01-17T13:55:00.826Z,2.11
2023-01-17T14:01:53.709Z,1.78
2023-01-17T14:06:58.672Z,1.47
2023-01-17T14:13:00.761Z,1.37
2023-01-17T14:18:03.884Z,1.46
2023-01-17T14:24:15.149Z,1.22
2023-01-17T14:29:45.652Z,1.17
2023-01-17T14:34:50.076Z,1.28
2023-01-17T14:39:51.111Z,1.31
2023-01-17T14:45:03.695Z,1.21
2023-01-17T14:50:39.932Z,1.09
2023-01-17T14:55:56.805Z,1.03
2023-01-17T15:01:01.319Z,1.19
2023-01-17T15:06:11.557Z,1.04
2023-01-17T15:11:25.563Z,0.99
2023-01-17T15:16:34.918Z,0.79
2023-01-17T15:21:39.787Z,0.76
2023-01-17T15:26:42.629Z,0.65
2023-01-17T15:31:49.612Z,0.64
2023-01-17T15:36:51.557Z,0.67
2023-01-17T15:41:54.285Z,0.69
2023-01-17T15:46:55.796Z,0.67
2023-01-17T15:52:15.422Z,0.71
2023-01-17T15:57:36.708Z,0.78
2023-01-17T16:02:54.463Z,0.79
2023-01-17T16:08:55.339Z,0.72
2023-01-17T16:13:56.052Z,0.66
2023-01-17T16:18:59.853Z,0.53
2023-01-17T16:24:02.024Z,0.43
2023-01-17T16:29:02.872Z,0.55
2023-01-17T16:34:10.200Z,0.34
2023-01-17T16:39:14.663Z,0.17
2023-01-17T16:44:16.006Z,0.12
2023-01-17T16:49:18.221Z,0.20
2023-01-17T16:54:19.009Z,0.24
2023-01-17T16:59:20.025Z,0.28
2023-01-17T17:04:20.791Z,0.39
2023-01-17T17:09:21.648Z,0.23
2023-01-17T17:14:22.418Z,0.19
2023-01-17T17:19:23.264Z,0.17
2023-01-17T17:24:24.335Z,0.16
2023-01-17T17:29:25.234Z,0.19
2023-01-17T17:34:27.424Z,0.13
2023-01-17T17:39:28.455Z,0.19
2023-01-17T17:44:30.045Z,0.21
2023-01-17T17:49:30.807Z,0.08
2023-01-17T17:54:32.180Z,0.08
2023-01-17T17:59:33.166Z,-0.03
2023-01-17T18:04:33.973Z,-0.15
2023-01-17T18:09:34.742Z,-0.13
2023-01-17T18:14:35.512Z,-0.13
2023-01-17T18:19:37.221Z,-0.24
2023-01-17T18:24:37.963Z,-0.14
2023-01-17T18:29:39.167Z,-0.08
2023-01-17T18:34:41.629Z,-0.01
2023-01-17T18:39:43.010Z,-0.06
2023-01-17T18:44:43.755Z,-0.16
2023-01-17T18:49:44.488Z,-0.17
2023-01-17T18:54:45.600Z,-0.14
2023-01-17T18:59:46.517Z,-0.22
2023-01-17T19:04:47.336Z,-0.20
2023-01-17T19:09:48.088Z,-0.20
2023-01-17T19:14:48.828Z,-0.24
2023-01-17T19:19:49.653Z,-0.34
2023-01-17T19:24:52.290Z,-0.36
2023-01-17T19:29:53.241Z,-0.31
2023-01-17T19:34:54.003Z,-0.36
2023-01-17T19:39:54.811Z,-0.37
2023-01-17T19:44:55.566Z,-0.43
2023-01-17T19:49:56.310Z,-0.46
2023-01-17T19:54:57.189Z,-0.40
2023-01-17T19:59:58.077Z,-0.32
2023-01-17T20:04:59.135Z,-0.33
2023-01-17T20:09:59.936Z,-0.32
2023-01-17T20:15:01.060Z,-0.34
2023-01-17T20:20:05.356Z,-0.41
2023-01-17T20:25:07.744Z,-0.45
2023-01-17T20:30:19.594Z,-0.43
2023-01-17T20:35:21.166Z,-0.42
2023-01-17T20:40:21.900Z,-0.37
2023-01-17T20:45:22.664Z,-0.25
2023-01-17T20:50:23.363Z,-0.18
2023-01-17T20:55:24.444Z,-0.11
2023-01-17T21:00:25.269Z,-0.04
2023-01-17T21:05:27.109Z,-0.07
2023-01-17T21:10:28.477Z,0.04
2023-01-17T21:15:29.255Z,0.71
2023-01-17T21:20:33.855Z,0.50
2023-01-17T21:25:37.912Z,0.27
2023-01-17T21:30:38.776Z,0.01
2023-01-17T21:35:39.571Z,-0.11
2023-01-17T21:40:41.553Z,-0.11
2023-01-17T21:45:42.288Z,-0.10
2023-01-17T21:50:44.341Z,-0.22
2023-01-17T21:56:03.916Z,-0.41
2023-01-17T22:01:14.888Z,-0.43
2023-01-17T22:06:16.611Z,-0.46
2023-01-17T22:11:20.466Z,-0.36
2023-01-17T22:16:23.424Z,-0.36
2023-01-17T22:21:27.439Z,-0.42
2023-01-17T22:26:30.195Z,-0.38
2023-01-17T22:31:31.116Z,-0.45
2023-01-17T22:36:33.059Z,-0.49
2023-01-17T22:41:36.466Z,-0.41
2023-01-17T22:46:38.476Z,-0.52
2023-01-17T22:51:39.405Z,-0.52
2023-01-17T22:56:40.554Z,-0.47
2023-01-17T23:01:41.401Z,-0.60
2023-01-17T23:06:42.708Z,-0.48
2023-01-17T23:11:49.355Z,-0.62
2023-01-17T23:17:21.979Z,-0.48
2023-01-17T23:22:26.074Z,-0.59
2023-01-17T23:27:57.384Z,-0.69
2023-01-17T23:33:00.604Z,-0.70
2023-01-17T23:38:20.266Z,-0.73
2023-01-17T23:43:23.896Z,-0.88
2023-01-17T23:48:27.995Z,-0.76
2023-01-17T23:53:28.725Z,-0.80
2023-01-17T23:58:29.495Z,-0.90
